createdAt,value
2022-12-14T00:01:25.566Z,6.43
2022-12-14T00:03:52.744Z,5.93
2022-12-14T00:06:20.363Z,7.22
2022-12-14T00:08:48.428Z,6.35
2022-12-14T00:11:15.337Z,6.57
2022-12-14T00:13:43.044Z,7.22
2022-12-14T00:16:13.077Z,6.80
2022-12-14T00:18:40.677Z,6.25
2022-12-14T00:21:12.473Z,6.47
2022-12-14T00:23:40.204Z,6.43
2022-12-14T00:26:24.062Z,6.80
2022-12-14T00:28:52.184Z,6.20
2022-12-14T00:31:19.648Z,6.35
2022-12-14T00:33:48.827Z,6.88
2022-12-14T00:36:15.145Z,6.65
2022-12-14T00:38:42.349Z,6.07
2022-12-14T00:41:09.937Z,5.65
2022-12-14T00:43:36.314Z,5.80
2022-12-14T00:46:02.856Z,5.35
2022-12-14T00:48:29.788Z,5.57
2022-12-14T00:50:56.824Z,5.78
2022-12-14T00:53:24.404Z,5.60
2022-12-14T00:55:51.142Z,5.57
2022-12-14T00:58:20.125Z,5.55
2022-12-14T01:00:48.194Z,5.13
2022-12-14T01:03:14.573Z,5.18
2022-12-14T01:05:41.039Z,5.55
2022-12-14T01:08:07.857Z,5.07
2022-12-14T01:10:40.499Z,5.43
2022-12-14T01:13:06.855Z,5.50
2022-12-14T01:15:35.625Z,4.50
2022-12-14T01:18:01.974Z,5.22
2022-12-14T01:20:30.680Z,5.28
2022-12-14T01:22:57.111Z,4.95
2022-12-14T01:25:23.873Z,5.60
2022-12-14T01:27:50.331Z,5.38
2022-12-14T01:30:19.224Z,4.82
2022-12-14T01:32:46.416Z,4.18
2022-12-14T01:35:15.054Z,4.13
2022-12-14T01:37:41.422Z,4.40
2022-12-14T01:40:08.732Z,5.00
2022-12-14T01:42:38.276Z,4.50
2022-12-14T01:45:05.586Z,4.57
2022-12-14T01:47:42.890Z,4.30
2022-12-14T01:50:31.131Z,3.67
2022-12-14T01:53:02.404Z,4.40
2022-12-14T01:55:35.750Z,3.53
2022-12-14T01:58:08.277Z,3.75
2022-12-14T02:00:40.081Z,3.70
2022-12-14T02:03:10.411Z,3.88
2022-12-14T02:05:42.213Z,3.92
2022-12-14T02:08:08.981Z,2.85
2022-12-14T02:10:35.913Z,3.50
2022-12-14T02:13:17.570Z,3.20
2022-12-14T02:15:44.460Z,4.05
2022-12-14T02:18:17.357Z,3.97
2022-12-14T02:23:50.251Z,3.63
2022-12-14T02:26:44.095Z,3.53
2022-12-14T02:29:49.131Z,3.17
2022-12-14T02:32:30.675Z,3.80
2022-12-14T02:35:24.284Z,3.13
2022-12-14T02:38:12.635Z,3.55
2022-12-14T02:41:13.607Z,3.58
2022-12-14T02:44:09.819Z,3.78
2022-12-14T02:46:45.110Z,4.05
2022-12-14T02:49:31.640Z,3.72
2022-12-14T02:52:22.140Z,3.85
2022-12-14T02:55:05.101Z,3.67
2022-12-14T03:00:05.229Z,3.15
2022-12-14T03:02:35.546Z,3.55
2022-12-14T03:05:02.205Z,3.53
2022-12-14T03:07:55.719Z,3.92
2022-12-14T03:10:36.361Z,3.80
2022-12-14T03:13:30.138Z,3.63
2022-12-14T03:16:07.635Z,4.28
2022-12-14T03:18:39.305Z,4.20
2022-12-14T03:21:10.366Z,3.95
2022-12-14T03:23:41.201Z,4.35
2022-12-14T03:26:10.623Z,4.30
2022-12-14T03:28:48.624Z,3.70
2022-12-14T03:31:26.324Z,4.18
2022-12-14T03:33:55.562Z,4.15
2022-12-14T03:36:27.138Z,3.92
2022-12-14T03:39:00.267Z,3.70
2022-12-14T03:41:54.443Z,3.72
2022-12-14T03:44:39.075Z,3.85
2022-12-14T03:47:33.620Z,3.85
2022-12-14T03:50:21.456Z,3.88
2022-12-14T03:52:53.468Z,3.38
2022-12-14T03:55:43.072Z,4.15
2022-12-14T03:58:53.838Z,3.80
2022-12-14T04:01:52.592Z,4.00
2022-12-14T04:04:26.360Z,3.85
2022-12-14T04:07:14.279Z,3.45
2022-12-14T04:10:03.468Z,3.70
2022-12-14T04:12:57.272Z,3.95
2022-12-14T04:15:52.236Z,4.30
2022-12-14T04:18:47.980Z,4.13
2022-12-14T04:21:29.415Z,4.20
2022-12-14T04:24:19.937Z,4.28
2022-12-14T04:26:55.669Z,4.10
2022-12-14T04:29:52.276Z,4.72
2022-12-14T04:32:25.186Z,4.35
2022-12-14T04:34:58.014Z,4.40
2022-12-14T04:39:57.942Z,4.85
2022-12-14T04:42:30.676Z,4.57
2022-12-14T04:47:35.654Z,4.47
2022-12-14T04:50:09.887Z,3.97
2022-12-14T04:52:44.060Z,4.78
2022-12-14T04:55:32.948Z,5.05
2022-12-14T04:58:09.495Z,6.13
2022-12-14T05:00:40.124Z,6.00
2022-12-14T05:03:29.809Z,5.57
2022-12-14T05:06:02.630Z,6.07
2022-12-14T05:08:47.565Z,5.35
2022-12-14T05:11:52.631Z,4.65
2022-12-14T05:14:22.127Z,6.30
2022-12-14T05:16:49.648Z,7.50
2022-12-14T05:19:16.266Z,8.20
2022-12-14T05:21:48.543Z,8.98
2022-12-14T05:24:16.117Z,9.13
2022-12-14T05:26:42.763Z,8.13
2022-12-14T05:29:09.276Z,8.57
2022-12-14T05:31:49.042Z,8.48
2022-12-14T05:34:15.913Z,8.15
2022-12-14T05:36:47.600Z,7.82
2022-12-14T05:39:14.985Z,7.38
2022-12-14T05:41:42.309Z,7.78
2022-12-14T05:44:08.932Z,7.82
2022-12-14T05:46:35.354Z,9.15
2022-12-14T05:49:02.156Z,7.68
2022-12-14T05:51:28.649Z,8.98
2022-12-14T05:53:58.389Z,8.73
2022-12-14T05:56:24.853Z,9.48
2022-12-14T05:58:52.393Z,9.25
2022-12-14T06:01:19.743Z,8.55
2022-12-14T06:03:51.936Z,8.30
2022-12-14T06:06:18.405Z,8.95
2022-12-14T06:08:45.938Z,8.90
2022-12-14T06:11:22.635Z,8.32
2022-12-14T06:13:49.730Z,8.52
2022-12-14T06:16:25.658Z,9.00
2022-12-14T06:18:54.528Z,9.10
2022-12-14T06:21:32.499Z,8.98
2022-12-14T06:23:59.680Z,9.75
2022-12-14T06:26:27.446Z,9.48
2022-12-14T06:28:55.551Z,10.15
2022-12-14T06:31:24.597Z,8.75
2022-12-14T06:33:51.643Z,8.55
2022-12-14T06:36:23.859Z,9.40
2022-12-14T06:38:59.653Z,9.48
2022-12-14T06:41:32.437Z,8.82
2022-12-14T06:46:44.727Z,8.10
2022-12-14T06:49:14.151Z,8.65
2022-12-14T06:51:48.136Z,8.07
2022-12-14T06:54:16.387Z,8.95
2022-12-14T06:56:44.872Z,10.30
2022-12-14T06:59:13.009Z,9.57
2022-12-14T07:01:42.317Z,10.20
2022-12-14T07:04:09.728Z,10.25
2022-12-14T07:06:38.825Z,9.63
2022-12-14T07:09:06.697Z,10.43
2022-12-14T07:11:33.337Z,9.40
2022-12-14T07:14:01.156Z,9.23
2022-12-14T07:16:31.264Z,10.10
2022-12-14T07:18:57.986Z,9.60
2022-12-14T07:21:24.548Z,10.57
2022-12-14T07:23:54.285Z,10.27
2022-12-14T07:26:25.942Z,9.93
2022-12-14T07:28:53.201Z,10.85
2022-12-14T07:31:22.949Z,10.02
2022-12-14T07:33:52.447Z,10.30
2022-12-14T07:36:20.548Z,10.68
2022-12-14T07:38:48.847Z,10.32
2022-12-14T07:41:22.354Z,9.57
2022-12-14T07:43:50.464Z,9.05
2022-12-14T07:46:19.792Z,9.93
2022-12-14T07:48:48.171Z,9.73
2022-12-14T07:51:17.064Z,9.52
2022-12-14T07:53:44.241Z,9.50
2022-12-14T07:56:16.149Z,9.55
2022-12-14T07:58:42.475Z,6.28
2022-12-14T08:01:14.503Z,9.40
2022-12-14T08:03:47.187Z,9.63
2022-12-14T08:06:14.644Z,9.55
2022-12-14T08:08:41.929Z,9.07
2022-12-14T08:11:08.968Z,8.45
2022-12-14T08:13:36.051Z,9.27
2022-12-14T08:16:06.441Z,9.20
2022-12-14T08:18:33.204Z,9.38
2022-12-14T08:21:00.616Z,8.82
2022-12-14T08:23:27.779Z,8.80
2022-12-14T08:25:55.584Z,9.65
2022-12-14T08:28:23.197Z,8.90
2022-12-14T08:30:49.902Z,7.93
2022-12-14T08:33:16.437Z,8.25
2022-12-14T08:35:42.769Z,8.32
2022-12-14T08:38:09.065Z,8.82
2022-12-14T08:40:36.760Z,8.65
2022-12-14T08:43:03.434Z,9.18
2022-12-14T08:45:29.800Z,9.15
2022-12-14T08:48:00.311Z,8.82
2022-12-14T08:50:27.830Z,7.75
2022-12-14T08:52:54.127Z,9.07
2022-12-14T08:55:27.579Z,9.07
2022-12-14T08:57:54.820Z,8.23
2022-12-14T09:00:21.222Z,9.27
2022-12-14T09:02:50.213Z,8.98
2022-12-14T09:05:16.938Z,8.73
2022-12-14T09:07:43.255Z,8.05
2022-12-14T09:10:10.714Z,8.40
2022-12-14T09:12:37.193Z,8.52
2022-12-14T09:15:04.157Z,8.75
2022-12-14T09:17:30.480Z,9.27
2022-12-14T09:19:57.928Z,7.68
2022-12-14T09:22:24.570Z,8.68
2022-12-14T09:24:51.844Z,9.25
2022-12-14T09:27:18.505Z,7.78
2022-12-14T09:29:44.804Z,8.02
2022-12-14T09:32:11.120Z,7.95
2022-12-14T09:34:37.460Z,8.50
2022-12-14T09:37:07.294Z,8.20
2022-12-14T09:39:34.468Z,8.00
2022-12-14T09:42:03.817Z,8.00
2022-12-14T09:44:48.925Z,7.88
2022-12-14T09:47:22.729Z,7.93
2022-12-14T09:50:01.660Z,8.43
2022-12-14T09:52:44.033Z,7.45
2022-12-14T09:55:45.913Z,8.00
2022-12-14T09:58:17.785Z,6.70
2022-12-14T10:00:53.769Z,7.50
2022-12-14T10:03:51.478Z,8.25
2022-12-14T10:06:21.186Z,6.78
2022-12-14T10:08:59.501Z,7.60
2022-12-14T10:11:34.806Z,7.38
2022-12-14T10:14:23.266Z,7.55
2022-12-14T10:17:26.414Z,7.38
2022-12-14T10:20:32.025Z,6.60
2022-12-14T10:23:01.943Z,6.50
2022-12-14T10:25:32.342Z,6.95
2022-12-14T10:28:12.701Z,6.38
2022-12-14T10:30:42.217Z,6.32
2022-12-14T10:33:11.329Z,5.93
2022-12-14T10:35:51.848Z,6.80
2022-12-14T10:38:23.602Z,6.60
2022-12-14T10:40:53.685Z,6.13
2022-12-14T10:43:58.057Z,6.68
2022-12-14T10:46:46.972Z,6.47
2022-12-14T10:49:23.362Z,6.25
2022-12-14T10:51:55.645Z,6.13
2022-12-14T10:54:38.505Z,5.75
2022-12-14T10:57:05.644Z,5.68
2022-12-14T10:59:40.732Z,5.30
2022-12-14T11:02:27.804Z,5.93
2022-12-14T11:05:00.268Z,5.40
2022-12-14T11:07:38.909Z,7.07
2022-12-14T11:10:23.053Z,6.22
2022-12-14T11:13:00.354Z,6.15
2022-12-14T11:15:33.493Z,6.07
2022-12-14T11:18:03.584Z,6.20
2022-12-14T11:20:30.770Z,7.60
2022-12-14T11:23:05.756Z,7.75
2022-12-14T11:25:44.931Z,8.52
2022-12-14T11:28:37.005Z,9.93
2022-12-14T11:31:13.237Z,8.65
2022-12-14T11:33:45.008Z,8.10
2022-12-14T11:36:30.202Z,7.40
2022-12-14T11:39:01.019Z,7.53
2022-12-14T11:41:36.421Z,7.53
2022-12-14T11:44:05.730Z,7.55
2022-12-14T11:47:15.692Z,7.45
2022-12-14T11:49:41.965Z,7.15
2022-12-14T11:52:08.225Z,7.70
2022-12-14T11:54:37.785Z,7.45
2022-12-14T11:57:13.080Z,7.45
2022-12-14T11:59:45.861Z,7.50
2022-12-14T12:02:20.352Z,7.65
2022-12-14T12:04:55.510Z,7.35
2022-12-14T12:07:30.576Z,7.63
2022-12-14T12:10:06.666Z,7.95
2022-12-14T12:12:33.300Z,7.82
2022-12-14T12:15:00.151Z,8.02
2022-12-14T12:17:42.261Z,7.40
2022-12-14T12:20:20.722Z,7.93
2022-12-14T12:22:51.766Z,7.45
2022-12-14T12:25:27.533Z,7.47
2022-12-14T12:28:03.219Z,7.32
2022-12-14T12:30:34.099Z,7.15
2022-12-14T12:33:13.674Z,7.25
2022-12-14T12:35:49.019Z,6.45
2022-12-14T12:38:27.174Z,6.47
2022-12-14T12:41:22.408Z,6.45
2022-12-14T12:43:58.287Z,6.10
2022-12-14T12:46:31.314Z,5.90
2022-12-14T12:51:49.060Z,5.80
2022-12-14T12:54:24.486Z,5.28
2022-12-14T12:56:55.748Z,6.20
2022-12-14T12:59:37.337Z,5.65
2022-12-14T13:02:19.494Z,5.40
2022-12-14T13:04:52.703Z,4.53
2022-12-14T13:10:23.529Z,5.40
2022-12-14T13:13:13.840Z,5.28
2022-12-14T13:15:46.922Z,5.00
2022-12-14T13:21:42.323Z,5.00
2022-12-14T13:24:17.881Z,4.63
2022-12-14T13:27:04.458Z,5.50
2022-12-14T13:29:35.022Z,6.70
2022-12-14T13:32:04.289Z,5.93
2022-12-14T13:35:02.620Z,5.82
2022-12-14T13:37:57.648Z,6.13
2022-12-14T13:40:45.846Z,5.80
2022-12-14T13:43:29.830Z,5.18
2022-12-14T13:45:56.385Z,5.70
2022-12-14T13:48:53.197Z,4.97
2022-12-14T13:51:28.455Z,5.57
2022-12-14T13:54:03.633Z,5.40
2022-12-14T13:56:34.253Z,5.38
2022-12-14T13:59:05.478Z,5.60
2022-12-14T14:01:55.232Z,5.63
2022-12-14T14:04:25.013Z,5.50
2022-12-14T14:07:16.459Z,5.38
2022-12-14T14:09:58.775Z,5.57
2022-12-14T14:12:38.725Z,5.80
2022-12-14T14:15:26.095Z,5.60
2022-12-14T14:17:55.051Z,5.32
2022-12-14T14:20:39.415Z,5.85
2022-12-14T14:23:18.010Z,6.22
2022-12-14T14:25:53.568Z,6.03
2022-12-14T14:28:28.349Z,5.85
2022-12-14T14:30:59.526Z,5.30
2022-12-14T14:33:48.406Z,5.90
2022-12-14T14:36:35.951Z,5.07
2022-12-14T14:39:31.437Z,6.63
2022-12-14T14:41:55.554Z,7.03
2022-12-14T14:44:28.289Z,7.35
2022-12-14T14:46:56.904Z,6.70
2022-12-14T14:49:31.761Z,8.07
2022-12-14T14:52:37.659Z,7.03
2022-12-14T14:58:24.970Z,7.05
2022-12-14T15:01:06.604Z,6.57
2022-12-14T15:03:45.355Z,7.22
2022-12-14T15:06:18.399Z,6.75
2022-12-14T15:11:21.355Z,7.28
2022-12-14T15:14:23.277Z,7.22
2022-12-14T15:16:49.702Z,7.40
2022-12-14T15:19:36.330Z,8.10
2022-12-14T15:22:15.570Z,6.70
2022-12-14T15:24:44.595Z,8.45
2022-12-14T15:27:28.055Z,8.23
2022-12-14T15:30:20.573Z,8.35
2022-12-14T15:32:55.027Z,7.50
2022-12-14T15:35:26.820Z,7.45
2022-12-14T15:38:21.400Z,8.18
2022-12-14T15:41:21.221Z,8.02
2022-12-14T15:43:49.357Z,8.05
2022-12-14T15:46:24.656Z,8.07
2022-12-14T15:49:12.589Z,8.60
2022-12-14T15:51:43.508Z,8.48
2022-12-14T15:54:19.680Z,10.13
2022-12-14T15:56:53.320Z,9.18
2022-12-14T15:59:34.616Z,9.30
2022-12-14T16:02:30.639Z,9.20
2022-12-14T16:05:02.873Z,7.65
2022-12-14T16:07:39.571Z,8.73
2022-12-14T16:10:29.037Z,8.82
2022-12-14T16:13:01.205Z,8.77
2022-12-14T16:15:29.519Z,9.18
2022-12-14T16:18:01.963Z,9.38
2022-12-14T16:20:37.656Z,8.20
2022-12-14T16:23:39.169Z,8.80
2022-12-14T16:26:15.964Z,8.88
2022-12-14T16:28:45.811Z,9.50
2022-12-14T16:31:20.249Z,9.77
2022-12-14T16:34:09.622Z,8.20
2022-12-14T16:36:36.891Z,9.10
2022-12-14T16:39:16.459Z,9.75
2022-12-14T16:41:57.055Z,10.10
2022-12-14T16:44:39.983Z,10.88
2022-12-14T16:47:12.483Z,11.65
2022-12-14T16:49:55.653Z,11.18
2022-12-14T16:52:26.330Z,10.73
2022-12-14T16:55:17.108Z,11.15
2022-12-14T16:57:49.459Z,10.60
2022-12-14T17:00:33.281Z,10.00
2022-12-14T17:03:03.075Z,10.80
2022-12-14T17:05:41.700Z,10.13
2022-12-14T17:08:08.636Z,11.70
2022-12-14T17:10:35.374Z,10.77
2022-12-14T17:13:03.289Z,10.80
2022-12-14T17:15:34.258Z,10.32
2022-12-14T17:18:03.861Z,11.15
2022-12-14T17:20:39.217Z,11.13
2022-12-14T17:23:08.655Z,10.07
2022-12-14T17:25:37.329Z,10.07
2022-12-14T17:28:29.767Z,11.15
2022-12-14T17:30:59.041Z,11.95
2022-12-14T17:33:49.530Z,10.10
2022-12-14T17:36:15.909Z,10.05
2022-12-14T17:38:48.396Z,9.10
2022-12-14T17:41:26.757Z,9.85
2022-12-14T17:43:57.482Z,9.90
2022-12-14T17:46:26.823Z,10.93
2022-12-14T17:48:53.495Z,9.95
2022-12-14T17:51:29.935Z,9.30
2022-12-14T17:53:58.173Z,10.00
2022-12-14T17:56:24.874Z,9.70
2022-12-14T17:58:51.260Z,10.57
2022-12-14T18:01:21.789Z,9.43
2022-12-14T18:03:51.914Z,11.05
2022-12-14T18:06:18.720Z,11.13
2022-12-14T18:08:46.561Z,11.15
2022-12-14T18:11:16.353Z,10.85
2022-12-14T18:13:42.909Z,10.60
2022-12-14T18:16:20.000Z,9.63
2022-12-14T18:18:46.862Z,10.27
2022-12-14T18:21:24.830Z,11.65
2022-12-14T18:23:52.323Z,10.25
2022-12-14T18:26:20.933Z,10.73
2022-12-14T18:28:55.248Z,9.68
2022-12-14T18:31:28.966Z,9.50
2022-12-14T18:34:12.902Z,9.63
2022-12-14T18:36:39.714Z,9.43
2022-12-14T18:39:19.802Z,8.48
2022-12-14T18:41:46.167Z,10.60
2022-12-14T18:44:12.552Z,9.50
2022-12-14T18:46:39.478Z,10.20
2022-12-14T18:49:05.972Z,11.05
2022-12-14T18:51:38.543Z,10.25
2022-12-14T18:54:05.233Z,8.82
2022-12-14T18:56:31.734Z,9.70
2022-12-14T18:59:05.387Z,10.40
2022-12-14T19:01:31.821Z,9.88
2022-12-14T19:03:58.349Z,10.00
2022-12-14T19:11:57.812Z,9.30
2022-12-14T19:14:24.205Z,10.30
2022-12-14T19:16:50.523Z,10.07
2022-12-14T19:19:19.913Z,10.40
2022-12-14T19:21:49.238Z,10.10
2022-12-14T19:24:15.829Z,10.23
2022-12-14T19:26:42.309Z,10.68
2022-12-14T19:29:08.625Z,10.30
2022-12-14T19:31:35.028Z,10.35
2022-12-14T19:34:01.449Z,10.98
2022-12-14T19:36:27.752Z,9.50
2022-12-14T19:38:54.125Z,10.30
2022-12-14T19:41:21.318Z,9.70
2022-12-14T19:43:48.415Z,10.20
2022-12-14T19:46:18.185Z,10.52
2022-12-14T19:48:44.726Z,10.77
2022-12-14T19:51:12.686Z,10.13
2022-12-14T19:53:40.708Z,10.85
2022-12-14T19:56:07.285Z,10.80
2022-12-14T19:58:33.710Z,10.68
2022-12-14T20:01:00.196Z,10.32
2022-12-14T20:03:27.231Z,11.15
2022-12-14T20:05:58.421Z,9.90
2022-12-14T20:08:25.930Z,9.75
2022-12-14T20:10:53.006Z,10.63
2022-12-14T20:13:20.640Z,10.35
2022-12-14T20:15:55.266Z,9.70
2022-12-14T20:18:22.503Z,9.43
2022-12-14T20:20:50.177Z,10.73
2022-12-14T20:23:18.367Z,9.80
2022-12-14T20:25:44.872Z,10.05
2022-12-14T20:28:11.659Z,9.68
2022-12-14T20:30:46.876Z,10.52
2022-12-14T20:33:13.477Z,10.48
2022-12-14T20:35:39.832Z,10.35
2022-12-14T20:38:06.198Z,11.27
2022-12-14T20:40:38.058Z,11.23
2022-12-14T20:43:05.031Z,10.85
2022-12-14T20:45:31.334Z,10.88
2022-12-14T20:47:57.716Z,10.60
2022-12-14T20:50:24.156Z,11.63
2022-12-14T20:52:50.509Z,11.30
2022-12-14T20:55:16.963Z,12.93
2022-12-14T20:57:43.274Z,11.60
2022-12-14T21:00:10.235Z,12.90
2022-12-14T21:02:36.612Z,11.48
2022-12-14T21:05:03.409Z,13.20
2022-12-14T21:07:32.517Z,12.05
2022-12-14T21:09:58.882Z,13.65
2022-12-14T21:12:25.693Z,13.07
2022-12-14T21:14:54.573Z,13.73
2022-12-14T21:17:23.146Z,13.40
2022-12-14T21:19:50.029Z,11.95
2022-12-14T21:22:19.089Z,12.65
2022-12-14T21:25:02.958Z,12.43
2022-12-14T21:27:31.602Z,13.38
2022-12-14T21:29:59.916Z,13.10
2022-12-14T21:32:26.406Z,12.98
2022-12-14T21:34:52.784Z,13.55
2022-12-14T21:37:20.207Z,11.48
2022-12-14T21:39:52.375Z,12.30
2022-12-14T21:42:21.849Z,10.35
2022-12-14T21:44:50.116Z,11.60
2022-12-14T21:47:19.459Z,11.52
2022-12-14T21:49:46.192Z,11.32
2022-12-14T21:52:15.355Z,10.95
2022-12-14T21:54:42.248Z,11.30
2022-12-14T21:57:52.039Z,11.73
2022-12-14T22:00:20.093Z,10.77
2022-12-14T22:02:46.563Z,10.75
2022-12-14T22:05:13.168Z,10.00
2022-12-14T22:07:39.651Z,10.15
2022-12-14T22:10:06.624Z,10.63
2022-12-14T22:12:33.027Z,10.98
2022-12-14T22:14:59.347Z,11.52
2022-12-14T22:17:25.715Z,11.32
2022-12-14T22:19:54.178Z,11.68
2022-12-14T22:22:20.511Z,11.27
2022-12-14T22:24:50.971Z,11.02
2022-12-14T22:27:17.572Z,10.32
2022-12-14T22:29:43.881Z,11.32
2022-12-14T22:32:14.466Z,10.38
2022-12-14T22:34:40.878Z,10.52
2022-12-14T22:37:07.354Z,9.98
2022-12-14T22:39:33.822Z,9.55
2022-12-14T22:42:00.177Z,9.93
2022-12-14T22:44:26.609Z,11.18
2022-12-14T22:46:52.940Z,10.45
2022-12-14T22:49:20.051Z,10.25
2022-12-14T22:51:47.219Z,9.73
2022-12-14T22:54:24.895Z,10.68
2022-12-14T22:57:02.326Z,11.88
2022-12-14T22:59:38.702Z,10.40
2022-12-14T23:02:05.525Z,11.02
2022-12-14T23:04:32.049Z,11.35
2022-12-14T23:06:58.649Z,11.82
2022-12-14T23:09:43.777Z,10.35
2022-12-14T23:12:28.505Z,9.55
2022-12-14T23:15:13.328Z,10.40
2022-12-14T23:17:58.053Z,9.48
2022-12-14T23:20:42.821Z,10.18
2022-12-14T23:23:28.364Z,9.52
2022-12-14T23:26:13.730Z,10.00
2022-12-14T23:28:59.104Z,9.65
2022-12-14T23:31:43.984Z,9.25
2022-12-14T23:34:28.741Z,10.70
2022-12-14T23:37:19.819Z,9.95
2022-12-14T23:40:05.844Z,10.38
2022-12-14T23:42:50.658Z,10.32
2022-12-14T23:45:35.234Z,9.20
2022-12-14T23:48:20.026Z,8.85
2022-12-14T23:51:04.615Z,9.82
2022-12-14T23:53:49.908Z,8.30
2022-12-14T23:56:35.757Z,8.63
2022-12-14T23:59:22.736Z,8.32
